CheckWX is a tool to help pilots better visualize weather data.  It is not intended as a substitute for an official pre-flight weather briefing.

01:31:39 UTC

KBIS METAR
Bismarck Municipal Airport
Bismarck, North Dakota, USA
Current

40 mins ago

KBIS 170052Z 07008KT 10SM FEW070 BKN100 23/16 A2987 RMK AO2 SLP109 T02280156
Observed
Jul-17 @ 00:52 UTC
Wind
  • 070° at 8 KTS
Visibility
10 SM
Flight Rules
VFR
Cloud Levels
  • Few at 7,000' AGL
  • Broken at 10,000' AGL
Temperature
23°C / 73°F
Dewpoint
16°C / 61°F
Humidity
65%
Altimeter
29.87" Hg
Pressure
1011.52 hPa
Previous

2 hours ago

KBIS 162352Z 06014KT 10SM BKN085 23/16 A2987 RMK AO2 SLP108 60000 T02330161 10283 20217 57018
Observed
Jul-16 @ 23:52 UTC
Wind
  • 060° at 14 KTS
Visibility
10 SM
Flight Rules
VFR
Cloud Levels
  • Broken at 8,500' AGL
Temperature
23°C / 73°F
Dewpoint
16°C / 61°F
Humidity
65%
Altimeter
29.87" Hg
Pressure
1011.52 hPa
Previous

3 hours ago

KBIS 162252Z 07013KT 10SM BKN110 24/16 A2988 RMK AO2 SLP112 T02390156
Observed
Jul-16 @ 22:52 UTC
Wind
  • 070° at 13 KTS
Visibility
10 SM
Flight Rules
VFR
Cloud Levels
  • Broken at 11,000' AGL
Temperature
24°C / 75°F
Dewpoint
16°C / 61°F
Humidity
61%
Altimeter
29.88" Hg
Pressure
1011.82 hPa